Time;durP1;ratioP1;P1;durP2;ratioP2;P2;SDS_P1;SDS_P2;PMS_P1;PMS_P2;Temp;Humidity;BMP_temperature;BMP_pressure;BME280_temperature;BME280_humidity;BME280_pressure;Samples;Min_cycle;Max_cycle;Signal;HPM_P1;HPM_P2
2023/04/28 00:02:00;;;;;;;;;;;;;;;12.90;nan;100332.88;5031163;28;19922;-81
2023/04/28 00:04:25;;;;;;;;;;;;;;;12.93;nan;100329.84;5014323;28;20300;-82
2023/04/28 00:06:50;;;;;;;;;;;;;;;12.99;nan;100331.03;5017107;28;19993;-81
2023/04/28 00:09:16;;;;;;;;;;;;;;;12.99;nan;100331.03;5009494;28;19925;-82
2023/04/28 00:11:43;;;;;;;;;;;;;;;12.76;nan;100333.56;5019446;28;19928;-81
2023/04/28 00:14:08;;;;;;;;;;;;;;;12.48;nan;100326.00;5034578;28;19975;-81
2023/04/28 00:16:33;;;;;;;;;;;;;;;12.24;nan;100329.53;5036702;28;19925;-81
2023/04/28 00:18:58;;;;;;;;;;;;;;;12.10;nan;100331.03;5010601;28;19928;-81
2023/04/28 00:21:23;;;;;;;;;;;;;;;11.94;nan;100333.72;5017803;28;19921;-81
2023/04/28 00:23:49;;;;;;;;;;;;;;;11.81;nan;100334.16;5037884;28;19933;-81
2023/04/28 00:26:14;;;;;;;;;;;;;;;11.76;nan;100327.69;5013579;28;19952;-81
2023/04/28 00:28:41;;;;;;;;;;;;;;;11.74;nan;100317.25;5039579;28;19978;-81
2023/04/28 00:31:13;;;;;;;;;;;;;;;11.69;nan;100308.97;5022327;28;19929;-82
2023/04/28 00:33:39;;;;;;;;;;;;;;;11.64;nan;100303.34;5029007;28;19934;-82
2023/04/28 00:36:04;;;;;;;;;;;;;;;11.61;nan;100301.88;5031981;28;19921;-82
2023/04/28 00:38:30;;;;;;;;;;;;;;;11.60;nan;100294.88;5037778;28;19921;-82
2023/04/28 00:40:55;;;;;;;;;;;;;;;11.63;nan;100283.13;5037317;28;19921;-81
2023/04/28 00:43:20;;;;;;;;;;;;;;;11.55;nan;100276.03;5017782;28;19929;-82
2023/04/28 00:45:45;;;;;;;;;;;;;;;11.46;nan;100269.91;5005959;28;19932;-82
2023/04/28 00:48:12;;;;;;;;;;;;;;;11.44;nan;100260.44;5039088;28;19960;-82
2023/04/28 00:50:37;;;;;;;;;;;;;;;11.36;nan;100257.81;5021838;28;19948;-81
2023/04/28 00:53:02;;;;;;;;;;;;;;;11.46;nan;100261.13;5021273;28;19929;-82
2023/04/28 00:55:30;;;;;;;;;;;;;;;11.46;nan;100253.16;5021350;28;19997;-82
2023/04/28 00:57:56;;;;;;;;;;;;;;;11.54;nan;100252.38;5033192;28;20332;-82
2023/04/28 01:00:21;;;;;;;;;;;;;;;11.69;nan;100256.00;5020560;28;19921;-81
2023/04/28 01:02:46;;;;;;;;;;;;;;;11.64;nan;100243.25;5037898;28;19928;-82
2023/04/28 01:05:12;;;;;;;;;;;;;;;11.60;nan;100241.09;5020254;28;19921;-82
2023/04/28 01:07:37;;;;;;;;;;;;;;;11.56;nan;100237.97;5020936;28;19921;-81
2023/04/28 01:10:03;;;;;;;;;;;;;;;11.69;nan;100224.22;5018785;28;20260;-82
2023/04/28 01:12:29;;;;;;;;;;;;;;;11.84;nan;100219.06;5018282;28;19921;-81
2023/04/28 01:14:55;;;;;;;;;;;;;;;11.90;nan;100211.31;5033978;28;19921;-81
2023/04/28 01:17:20;;;;;;;;;;;;;;;11.92;nan;100216.47;5034354;28;19987;-82
2023/04/28 01:19:45;;;;;;;;;;;;;;;11.91;nan;100212.13;5033901;28;19987;-82
2023/04/28 01:22:14;;;;;;;;;;;;;;;12.01;nan;100202.19;5037227;28;20024;-82
2023/04/28 01:24:39;;;;;;;;;;;;;;;12.10;nan;100198.50;5035540;28;19964;-82
2023/04/28 01:27:04;;;;;;;;;;;;;;;12.16;nan;100197.03;5017929;28;19945;-82
2023/04/28 01:29:30;;;;;;;;;;;;;;;12.21;nan;100202.63;5037163;28;19921;-82
2023/04/28 01:31:55;;;;;;;;;;;;;;;12.23;nan;100199.81;5037088;28;19953;-82
2023/04/28 01:34:20;;;;;;;;;;;;;;;12.21;nan;100199.16;5016726;28;19930;-82
2023/04/28 01:36:45;;;;;;;;;;;;;;;12.18;nan;100194.19;5036430;28;19925;-82
2023/04/28 01:39:10;;;;;;;;;;;;;;;12.17;nan;100203.16;5036750;28;19921;-82
2023/04/28 01:41:36;;;;;;;;;;;;;;;12.15;nan;100198.00;5036689;28;19924;-82
2023/04/28 01:44:01;;;;;;;;;;;;;;;12.19;nan;100188.72;5019100;28;19943;-82
2023/04/28 01:46:26;;;;;;;;;;;;;;;12.35;nan;100197.59;5035644;28;20051;-81
2023/04/28 01:48:51;;;;;;;;;;;;;;;12.47;nan;100202.38;5019267;28;20024;-82
2023/04/28 01:51:16;;;;;;;;;;;;;;;12.50;nan;100199.38;5018420;28;19921;-82
2023/04/28 01:53:42;;;;;;;;;;;;;;;12.40;nan;100201.41;5018861;28;19928;-82
2023/04/28 01:56:07;;;;;;;;;;;;;;;12.28;nan;100206.25;5028210;28;19990;-82
2023/04/28 01:58:32;;;;;;;;;;;;;;;12.10;nan;100206.47;5035834;28;20335;-82
2023/04/28 02:00:57;;;;;;;;;;;;;;;11.96;nan;100216.94;5030718;28;19921;-81
2023/04/28 02:03:22;;;;;;;;;;;;;;;11.86;nan;100217.91;5019344;28;20566;-84
2023/04/28 02:05:48;;;;;;;;;;;;;;;11.82;nan;100223.69;5016186;28;19929;-81
2023/04/28 02:08:13;;;;;;;;;;;;;;;11.79;nan;100218.75;5030514;28;19928;-82
2023/04/28 02:10:38;;;;;;;;;;;;;;;11.79;nan;100208.16;5036250;28;19928;-81
2023/04/28 02:13:03;;;;;;;;;;;;;;;11.80;nan;100193.94;5011818;28;20007;-81
2023/04/28 02:15:29;;;;;;;;;;;;;;;11.76;nan;100193.41;5015633;28;20023;-82
2023/04/28 02:17:54;;;;;;;;;;;;;;;11.69;nan;100201.19;5028611;28;19921;-82
2023/04/28 02:20:19;;;;;;;;;;;;;;;11.63;nan;100193.94;5017844;28;19977;-82
2023/04/28 02:22:45;;;;;;;;;;;;;;;11.57;nan;100202.53;5018760;28;20373;-82
2023/04/28 02:25:10;;;;;;;;;;;;;;;11.52;nan;100196.09;5018087;28;19936;-82
2023/04/28 02:27:35;;;;;;;;;;;;;;;11.49;nan;100210.50;5017891;28;19921;-82
2023/04/28 02:30:04;;;;;;;;;;;;;;;11.48;nan;100214.13;5032135;28;19928;-82
2023/04/28 02:32:30;;;;;;;;;;;;;;;11.46;nan;100214.31;5007383;28;19943;-82
2023/04/28 02:34:55;;;;;;;;;;;;;;;11.46;nan;100218.75;5018732;28;19925;-82
2023/04/28 02:37:21;;;;;;;;;;;;;;;11.51;nan;100224.38;5032654;28;19932;-82
2023/04/28 02:39:46;;;;;;;;;;;;;;;11.56;nan;100237.13;5031810;28;19932;-82
2023/04/28 02:42:11;;;;;;;;;;;;;;;11.53;nan;100240.09;5016676;28;20004;-82
2023/04/28 02:44:37;;;;;;;;;;;;;;;11.50;nan;100240.44;5032080;28;20400;-82
2023/04/28 02:47:02;;;;;;;;;;;;;;;11.49;nan;100236.97;5018977;28;19974;-82
2023/04/28 02:49:27;;;;;;;;;;;;;;;11.48;nan;100238.78;5034754;28;19925;-82
2023/04/28 02:51:52;;;;;;;;;;;;;;;11.46;nan;100232.00;5019201;28;19920;-82
2023/04/28 02:54:26;;;;;;;;;;;;;;;11.42;nan;100225.38;5027217;28;19918;-81
2023/04/28 02:56:55;;;;;;;;;;;;;;;11.39;nan;100223.91;5012004;28;20003;-82
2023/04/28 02:59:21;;;;;;;;;;;;;;;11.40;nan;100225.53;5018704;28;19948;-82
2023/04/28 03:01:47;;;;;;;;;;;;;;;11.36;nan;100221.56;5017964;28;19929;-81
2023/04/28 03:04:12;;;;;;;;;;;;;;;11.34;nan;100222.72;5016867;28;19924;-82
2023/04/28 03:06:38;;;;;;;;;;;;;;;11.34;nan;100222.72;5010278;28;20450;-82
2023/04/28 03:09:03;;;;;;;;;;;;;;;11.34;nan;100222.72;5035757;28;19944;-82
2023/04/28 03:11:28;;;;;;;;;;;;;;;11.36;nan;100205.69;5018262;28;19917;-82
2023/04/28 03:13:53;;;;;;;;;;;;;;;11.37;nan;100207.34;5018567;28;20469;-82
2023/04/28 03:16:18;;;;;;;;;;;;;;;11.35;nan;100197.91;5016055;28;19921;-82
2023/04/28 03:18:43;;;;;;;;;;;;;;;11.33;nan;100198.06;5018160;28;21465;-82
2023/04/28 03:21:08;;;;;;;;;;;;;;;11.33;nan;100194.59;5018426;28;19932;-82
2023/04/28 03:23:34;;;;;;;;;;;;;;;11.31;nan;100196.59;5017861;28;19921;-82
2023/04/28 03:25:59;;;;;;;;;;;;;;;11.28;nan;100184.50;5022218;28;19921;-82
2023/04/28 03:28:25;;;;;;;;;;;;;;;11.28;nan;100160.69;5034003;28;20007;-82
2023/04/28 03:30:50;;;;;;;;;;;;;;;11.26;nan;100149.44;5034846;28;19917;-82
2023/04/28 03:33:15;;;;;;;;;;;;;;;11.20;nan;100148.28;5026635;28;20592;-82
2023/04/28 03:35:40;;;;;;;;;;;;;;;11.16;nan;100146.13;5013026;28;19924;-82
2023/04/28 03:38:06;;;;;;;;;;;;;;;11.14;nan;100142.81;5031017;28;19951;-82
2023/04/28 03:40:31;;;;;;;;;;;;;;;11.10;nan;100144.94;5018906;28;19921;-82
2023/04/28 03:42:56;;;;;;;;;;;;;;;11.11;nan;100146.63;5036225;28;20348;-82
2023/04/28 03:45:21;;;;;;;;;;;;;;;11.05;nan;100144.63;5015456;28;19925;-82
2023/04/28 03:47:46;;;;;;;;;;;;;;;10.99;nan;100145.28;5033494;28;19921;-82
2023/04/28 03:50:12;;;;;;;;;;;;;;;10.96;nan;100141.13;5014514;28;19921;-83
2023/04/28 03:52:37;;;;;;;;;;;;;;;10.98;nan;100140.97;5036917;28;19922;-82
2023/04/28 03:55:02;;;;;;;;;;;;;;;11.03;nan;100136.03;5035998;28;19984;-85
2023/04/28 03:57:28;;;;;;;;;;;;;;;11.11;nan;100138.69;5025582;28;19921;-82
2023/04/28 03:59:53;;;;;;;;;;;;;;;11.19;nan;100133.38;5024584;28;19922;-82
2023/04/28 04:02:18;;;;;;;;;;;;;;;11.24;nan;100135.53;5023695;28;20385;-81
2023/04/28 04:04:44;;;;;;;;;;;;;;;11.28;nan;100126.28;5042169;28;19967;-83
2023/04/28 04:07:09;;;;;;;;;;;;;;;11.35;nan;100121.16;5025304;28;19925;-82
2023/04/28 04:09:34;;;;;;;;;;;;;;;11.37;nan;100130.59;5001457;28;19921;-82
2023/04/28 04:12:00;;;;;;;;;;;;;;;11.42;nan;100133.53;5025896;28;19921;-82
2023/04/28 04:14:25;;;;;;;;;;;;;;;11.47;nan;100138.34;5023763;28;19933;-83
2023/04/28 04:16:50;;;;;;;;;;;;;;;11.51;nan;100129.06;5022755;28;19928;-82
2023/04/28 04:19:15;;;;;;;;;;;;;;;11.59;nan;100139.66;5013987;28;19931;-82
2023/04/28 04:21:42;;;;;;;;;;;;;;;11.62;nan;100139.31;5023219;28;19921;-82
2023/04/28 04:24:07;;;;;;;;;;;;;;;11.65;nan;100132.84;5034667;28;19921;-83
2023/04/28 04:26:32;;;;;;;;;;;;;;;11.67;nan;100141.44;5024780;28;20296;-83
2023/04/28 04:28:57;;;;;;;;;;;;;;;11.67;nan;100133.50;5016712;28;19921;-83
2023/04/28 04:31:22;;;;;;;;;;;;;;;11.64;nan;100142.63;5036158;28;20440;-83
2023/04/28 04:33:48;;;;;;;;;;;;;;;11.64;nan;100142.63;5020464;28;19957;-83
2023/04/28 04:36:13;;;;;;;;;;;;;;;11.64;nan;100147.09;5016079;28;19928;-84
2023/04/28 04:38:38;;;;;;;;;;;;;;;11.65;nan;100149.56;5023933;28;19948;-83
2023/04/28 04:41:04;;;;;;;;;;;;;;;11.67;nan;100146.75;5038872;28;19921;-82
2023/04/28 04:43:29;;;;;;;;;;;;;;;11.68;nan;100143.94;5017338;28;19937;-83
2023/04/28 04:45:54;;;;;;;;;;;;;;;11.70;nan;100162.28;5041459;28;19921;-82
2023/04/28 04:48:19;;;;;;;;;;;;;;;11.72;nan;100152.38;5024664;28;19933;-82
2023/04/28 04:50:45;;;;;;;;;;;;;;;11.74;nan;100146.91;5024448;28;19968;-82
2023/04/28 04:53:10;;;;;;;;;;;;;;;11.75;nan;100148.56;5041714;28;19979;-83
2023/04/28 04:55:36;;;;;;;;;;;;;;;11.77;nan;100146.56;5024128;28;20340;-83
2023/04/28 04:58:01;;;;;;;;;;;;;;;11.77;nan;100152.69;5042228;28;19921;-83
2023/04/28 05:00:26;;;;;;;;;;;;;;;11.76;nan;100144.91;5024027;28;19966;-82
2023/04/28 05:02:51;;;;;;;;;;;;;;;11.74;nan;100138.97;5023755;28;19928;-83
2023/04/28 05:05:16;;;;;;;;;;;;;;;11.69;nan;100132.34;5023646;28;19921;-82
2023/04/28 05:07:42;;;;;;;;;;;;;;;11.66;nan;100129.22;5041542;28;19928;-82
2023/04/28 05:10:07;;;;;;;;;;;;;;;11.63;nan;100124.22;5023649;28;19952;-83
2023/04/28 05:12:32;;;;;;;;;;;;;;;11.61;nan;100127.06;5024758;28;19936;-82
2023/04/28 05:14:58;;;;;;;;;;;;;;;11.65;nan;100120.41;5043320;28;20487;-83
2023/04/28 05:17:23;;;;;;;;;;;;;;;11.68;nan;100116.63;5024299;28;19944;-82
2023/04/28 05:19:49;;;;;;;;;;;;;;;11.71;nan;100124.22;5023053;28;19921;-83
2023/04/28 05:22:15;;;;;;;;;;;;;;;11.75;nan;100122.06;5042013;28;20434;-82
2023/04/28 05:24:40;;;;;;;;;;;;;;;11.78;nan;100129.69;5024702;28;19960;-83
2023/04/28 05:27:05;;;;;;;;;;;;;;;11.80;nan;100133.00;5042354;28;19925;-83
2023/04/28 05:29:30;;;;;;;;;;;;;;;11.78;nan;100127.03;5024442;28;19917;-82
2023/04/28 05:31:56;;;;;;;;;;;;;;;11.78;nan;100125.22;5023887;28;19925;-82
2023/04/28 05:34:21;;;;;;;;;;;;;;;11.83;nan;100124.72;5025762;28;19925;-84
2023/04/28 05:36:46;;;;;;;;;;;;;;;11.85;nan;100128.84;5023535;28;19944;-83
2023/04/28 05:39:11;;;;;;;;;;;;;;;11.88;nan;100130.34;5035856;28;19925;-82
2023/04/28 05:41:36;;;;;;;;;;;;;;;11.91;nan;100135.28;5019819;28;19947;-82
2023/04/28 05:44:02;;;;;;;;;;;;;;;12.00;nan;100136.13;5019420;28;19921;-83
2023/04/28 05:46:27;;;;;;;;;;;;;;;12.01;nan;100135.09;5021849;28;19921;-83
2023/04/28 05:48:53;;;;;;;;;;;;;;;12.02;nan;100127.00;5024345;28;19921;-82
2023/04/28 05:51:18;;;;;;;;;;;;;;;12.05;nan;100129.28;5021710;28;19933;-83
2023/04/28 05:53:47;;;;;;;;;;;;;;;12.06;nan;100132.75;5024404;28;19986;-84
2023/04/28 05:56:12;;;;;;;;;;;;;;;12.08;nan;100128.97;5036854;28;20286;-83
2023/04/28 05:58:38;;;;;;;;;;;;;;;12.11;nan;100125.97;5017182;28;19928;-83
2023/04/28 06:01:03;;;;;;;;;;;;;;;12.10;nan;100132.25;5040775;28;19921;-84
2023/04/28 06:03:29;;;;;;;;;;;;;;;12.11;nan;100131.28;5038481;28;19944;-82
2023/04/28 06:05:54;;;;;;;;;;;;;;;12.10;nan;100140.19;5012733;28;19921;-83
2023/04/28 06:08:20;;;;;;;;;;;;;;;12.08;nan;100147.53;5012731;28;19933;-82
2023/04/28 06:10:45;;;;;;;;;;;;;;;12.11;nan;100155.13;5015242;28;19925;-82
2023/04/28 06:13:10;;;;;;;;;;;;;;;12.11;nan;100163.06;5028668;28;19925;-83
2023/04/28 06:15:36;;;;;;;;;;;;;;;12.07;nan;100164.41;5007961;28;20341;-83
2023/04/28 06:18:01;;;;;;;;;;;;;;;12.07;nan;100161.75;5018594;28;19929;-82
2023/04/28 06:20:26;;;;;;;;;;;;;;;12.02;nan;100169.41;5032050;28;19929;-83
2023/04/28 06:22:51;;;;;;;;;;;;;;;11.99;nan;100177.69;5020118;28;20013;-83
2023/04/28 06:25:17;;;;;;;;;;;;;;;11.97;nan;100179.69;5014329;28;19922;-83
2023/04/28 06:27:42;;;;;;;;;;;;;;;11.86;nan;100175.50;5011992;28;20352;-84
2023/04/28 06:30:07;;;;;;;;;;;;;;;11.83;nan;100167.09;5012116;28;19928;-82
2023/04/28 06:32:32;;;;;;;;;;;;;;;11.80;nan;100165.63;5033464;28;19956;-84
2023/04/28 06:34:57;;;;;;;;;;;;;;;11.79;nan;100160.47;5035925;28;19929;-82
2023/04/28 06:37:23;;;;;;;;;;;;;;;11.78;nan;100154.34;5036024;28;20261;-83
2023/04/28 06:39:48;;;;;;;;;;;;;;;11.79;nan;100144.56;5014642;28;19953;-83
2023/04/28 06:42:17;;;;;;;;;;;;;;;11.79;nan;100145.41;5015455;28;19921;-85
2023/04/28 06:44:42;;;;;;;;;;;;;;;11.81;nan;100155.84;5015702;28;19922;-86
2023/04/28 06:47:07;;;;;;;;;;;;;;;11.79;nan;100156.00;5037797;28;19928;-85
2023/04/28 06:49:32;;;;;;;;;;;;;;;11.78;nan;100153.53;5030748;28;20612;-86
2023/04/28 06:51:57;;;;;;;;;;;;;;;11.77;nan;100150.03;5011864;28;19961;-84
2023/04/28 06:54:23;;;;;;;;;;;;;;;11.76;nan;100160.81;5030797;28;19925;-84
2023/04/28 06:56:48;;;;;;;;;;;;;;;11.77;nan;100141.25;5014261;28;20308;-84
2023/04/28 06:59:13;;;;;;;;;;;;;;;11.75;nan;100141.44;5015532;28;20421;-84
2023/04/28 07:01:38;;;;;;;;;;;;;;;11.77;nan;100157.16;5033857;28;20568;-85
2023/04/28 07:04:04;;;;;;;;;;;;;;;11.75;nan;100138.81;5015748;28;19928;-88
2023/04/28 07:06:30;;;;;;;;;;;;;;;11.74;nan;100147.72;5034814;28;20129;-87
2023/04/28 07:08:55;;;;;;;;;;;;;;;11.78;nan;100153.53;5017875;28;19964;-86
2023/04/28 07:11:22;;;;;;;;;;;;;;;11.77;nan;100152.69;5016676;28;19957;-88
2023/04/28 07:13:49;;;;;;;;;;;;;;;11.81;nan;100153.19;5018876;28;19925;-86
2023/04/28 07:16:14;;;;;;;;;;;;;;;11.76;nan;100147.56;5035029;28;19921;-85
2023/04/28 07:18:39;;;;;;;;;;;;;;;11.78;nan;100142.94;5034206;28;19932;-86
2023/04/28 07:21:05;;;;;;;;;;;;;;;11.79;nan;100144.56;5017243;28;19921;-87
2023/04/28 07:23:30;;;;;;;;;;;;;;;11.83;nan;100145.91;5033869;28;19928;-87
2023/04/28 07:25:56;;;;;;;;;;;;;;;11.84;nan;100145.72;5032496;28;19968;-85
2023/04/28 07:28:21;;;;;;;;;;;;;;;11.86;nan;100145.56;5033459;28;20004;-83
2023/04/28 07:30:46;;;;;;;;;;;;;;;11.87;nan;100152.56;5032373;28;19956;-86
2023/04/28 07:33:11;;;;;;;;;;;;;;;11.94;nan;100147.38;5015865;28;19925;-86
2023/04/28 07:35:37;;;;;;;;;;;;;;;12.05;nan;100139.88;5032047;28;19925;-86
2023/04/28 07:38:02;;;;;;;;;;;;;;;12.09;nan;100140.38;5012684;28;19921;-87
2023/04/28 07:40:27;;;;;;;;;;;;;;;12.11;nan;100143.69;5014023;28;19925;-87
2023/04/28 07:42:53;;;;;;;;;;;;;;;12.08;nan;100147.53;5031851;28;20270;-85
2023/04/28 07:45:18;;;;;;;;;;;;;;;12.06;nan;100141.56;5033188;28;19921;-85
2023/04/28 07:47:43;;;;;;;;;;;;;;;12.04;nan;100127.66;5017301;28;19975;-86
2023/04/28 07:50:10;;;;;;;;;;;;;;;12.08;nan;100120.16;5013737;28;19925;-86
2023/04/28 07:52:35;;;;;;;;;;;;;;;12.11;nan;100119.84;5032785;28;19921;-84
2023/04/28 07:55:02;;;;;;;;;;;;;;;12.15;nan;100131.75;5014508;28;19921;-86
2023/04/28 07:57:28;;;;;;;;;;;;;;;12.20;nan;100131.22;5007353;28;19921;-86
2023/04/28 07:59:53;;;;;;;;;;;;;;;12.30;nan;100129.22;5017321;28;19927;-85
2023/04/28 08:02:19;;;;;;;;;;;;;;;12.42;nan;100124.31;5013632;28;19965;-86
2023/04/28 08:04:44;;;;;;;;;;;;;;;12.61;nan;100129.22;5024172;28;19987;-86
2023/04/28 08:07:09;;;;;;;;;;;;;;;12.68;nan;100124.88;5013983;28;20494;-86
2023/04/28 08:09:36;;;;;;;;;;;;;;;12.75;nan;100119.66;5033913;28;19921;-86
2023/04/28 08:12:01;;;;;;;;;;;;;;;12.68;nan;100121.34;5035453;28;19928;-85
2023/04/28 08:14:26;;;;;;;;;;;;;;;12.61;nan;100128.38;5011530;28;19929;-86
2023/04/28 08:16:52;;;;;;;;;;;;;;;12.59;nan;100127.75;5015521;28;19916;-85
2023/04/28 08:19:17;;;;;;;;;;;;;;;12.71;nan;100129.00;5011137;28;19929;-87
2023/04/28 08:21:42;;;;;;;;;;;;;;;12.71;nan;100132.47;5016837;28;19966;-86
2023/04/28 08:24:09;;;;;;;;;;;;;;;12.74;nan;100139.25;5026615;28;19921;-87
2023/04/28 08:26:35;;;;;;;;;;;;;;;12.88;nan;100141.13;5033381;28;19925;-87
2023/04/28 08:29:00;;;;;;;;;;;;;;;13.00;nan;100135.44;5018127;28;19967;-87
2023/04/28 08:31:25;;;;;;;;;;;;;;;13.17;nan;100123.69;5016215;28;19968;-86
2023/04/28 08:33:51;;;;;;;;;;;;;;;13.26;nan;100117.28;5031417;28;19932;-86
2023/04/28 08:36:17;;;;;;;;;;;;;;;13.42;nan;100131.44;5033110;28;19928;-84
2023/04/28 08:38:44;;;;;;;;;;;;;;;13.50;nan;100131.41;5019053;28;19928;-85
2023/04/28 08:41:11;;;;;;;;;;;;;;;13.54;nan;100148.63;5036006;28;19956;-85
2023/04/28 08:43:39;;;;;;;;;;;;;;;13.51;nan;100147.13;5006806;28;20518;-84
2023/04/28 08:46:05;;;;;;;;;;;;;;;13.51;nan;100141.81;5010229;28;19929;-85
2023/04/28 08:48:32;;;;;;;;;;;;;;;13.73;nan;100142.78;5034726;28;19936;-83
2023/04/28 08:50:57;;;;;;;;;;;;;;;13.95;nan;100149.03;5011628;28;20008;-84
2023/04/28 08:53:26;;;;;;;;;;;;;;;14.21;nan;100143.25;5022288;28;19961;-83
2023/04/28 08:55:53;;;;;;;;;;;;;;;14.32;nan;100139.28;5015088;28;19921;-83
2023/04/28 08:58:19;;;;;;;;;;;;;;;14.50;nan;100138.88;5037286;28;19943;-83
2023/04/28 09:00:44;;;;;;;;;;;;;;;14.63;nan;100143.56;5034219;28;20059;-84
2023/04/28 09:03:11;;;;;;;;;;;;;;;14.82;nan;100147.44;5016739;28;20012;-85
2023/04/28 09:05:36;;;;;;;;;;;;;;;14.95;nan;100139.63;5015071;28;20293;-84
2023/04/28 09:08:01;;;;;;;;;;;;;;;14.79;nan;100151.31;5013508;28;19971;-84
2023/04/28 09:10:27;;;;;;;;;;;;;;;14.87;nan;100142.38;4998641;28;20015;-84
2023/04/28 09:12:54;;;;;;;;;;;;;;;14.92;nan;100136.50;5030346;28;19925;-84
2023/04/28 09:15:25;;;;;;;;;;;;;;;15.14;nan;100150.66;5010582;28;19921;-84
2023/04/28 09:17:51;;;;;;;;;;;;;;;15.15;nan;100155.78;5014131;28;19932;-84
2023/04/28 09:20:20;;;;;;;;;;;;;;;15.12;nan;100150.84;5012484;28;19925;-85
2023/04/28 09:22:45;;;;;;;;;;;;;;;15.01;nan;100154.81;5031290;28;20472;-85
2023/04/28 09:25:10;;;;;;;;;;;;;;;14.76;nan;100154.38;5013253;28;19971;-84
2023/04/28 09:27:36;;;;;;;;;;;;;;;14.54;nan;100163.31;5015432;28;19925;-84
2023/04/28 09:30:03;;;;;;;;;;;;;;;14.38;nan;100161.66;5036592;28;19928;-85
2023/04/28 09:32:29;;;;;;;;;;;;;;;14.30;nan;100156.44;5016919;28;19948;-83
2023/04/28 09:35:01;;;;;;;;;;;;;;;14.31;nan;100150.94;5014206;28;19953;-84
2023/04/28 09:37:29;;;;;;;;;;;;;;;14.29;nan;100154.78;5016377;28;19925;-84
2023/04/28 09:39:54;;;;;;;;;;;;;;;14.22;nan;100150.19;5016511;28;20471;-84
2023/04/28 09:42:32;;;;;;;;;;;;;;;14.15;nan;100151.13;5012345;28;19921;-83
2023/04/28 09:44:57;;;;;;;;;;;;;;;14.07;nan;100157.38;5019114;28;19932;-84
2023/04/28 09:47:24;;;;;;;;;;;;;;;14.08;nan;100156.34;5031275;28;19921;-84
2023/04/28 09:49:53;;;;;;;;;;;;;;;14.11;nan;100153.34;5015693;28;19929;-84
2023/04/28 09:52:19;;;;;;;;;;;;;;;14.10;nan;100161.50;5016821;28;20373;-84
2023/04/28 09:54:44;;;;;;;;;;;;;;;14.15;nan;100164.44;5026429;28;20018;-84
2023/04/28 09:57:10;;;;;;;;;;;;;;;14.27;nan;100162.13;5017535;28;19927;-84
2023/04/28 09:59:35;;;;;;;;;;;;;;;14.32;nan;100163.22;5037997;28;20342;-85
2023/04/28 10:02:03;;;;;;;;;;;;;;;14.39;nan;100163.31;5013453;28;19953;-84
2023/04/28 10:04:32;;;;;;;;;;;;;;;14.41;nan;100166.59;5016601;28;19929;-84
2023/04/28 10:06:58;;;;;;;;;;;;;;;14.41;nan;100169.28;5011406;28;19928;-83
2023/04/28 10:09:25;;;;;;;;;;;;;;;14.27;nan;100173.59;5013559;28;19944;-83
2023/04/28 10:11:51;;;;;;;;;;;;;;;14.13;nan;100164.59;5016582;28;20397;-83
2023/04/28 10:14:16;;;;;;;;;;;;;;;14.07;nan;100156.56;5015015;28;19970;-84
2023/04/28 10:16:43;;;;;;;;;;;;;;;14.11;nan;100155.16;5033793;28;19921;-84
2023/04/28 10:19:14;;;;;;;;;;;;;;;14.19;nan;100157.75;5029456;28;19949;-84
2023/04/28 10:21:43;;;;;;;;;;;;;;;14.14;nan;100162.78;5028400;28;19921;-83
2023/04/28 10:24:13;;;;;;;;;;;;;;;14.12;nan;100152.31;5016018;28;19928;-84
2023/04/28 10:26:57;;;;;;;;;;;;;;;14.16;nan;100161.59;5022051;28;20423;-83
2023/04/28 10:29:26;;;;;;;;;;;;;;;14.26;nan;100163.97;5025202;28;20373;-83
2023/04/28 10:32:10;;;;;;;;;;;;;;;14.38;nan;100162.47;5017097;28;19921;-84
2023/04/28 10:34:35;;;;;;;;;;;;;;;14.49;nan;100161.19;5037021;28;20393;-83
2023/04/28 10:37:01;;;;;;;;;;;;;;;14.56;nan;100164.78;5020332;28;19944;-84
2023/04/28 10:39:27;;;;;;;;;;;;;;;14.56;nan;100164.78;5028443;28;19925;-83
2023/04/28 10:41:52;;;;;;;;;;;;;;;14.55;nan;100160.47;5019465;28;19925;-83
2023/04/28 10:44:29;;;;;;;;;;;;;;;14.56;nan;100162.13;5017284;28;20317;-84
2023/04/28 10:47:05;;;;;;;;;;;;;;;14.62;nan;100155.22;5012980;28;19925;-84
2023/04/28 10:49:49;;;;;;;;;;;;;;;14.68;nan;100156.31;5034348;28;19947;-83
2023/04/28 10:52:39;;;;;;;;;;;;;;;14.79;nan;100143.34;5014719;28;19921;-83
2023/04/28 10:55:23;;;;;;;;;;;;;;;14.88;nan;100141.38;5036942;28;19931;-85
2023/04/28 10:58:07;;;;;;;;;;;;;;;14.96;nan;100141.25;5016610;28;19925;-84
2023/04/28 11:00:33;;;;;;;;;;;;;;;14.96;nan;100146.56;5034815;28;19921;-84
2023/04/28 11:02:58;;;;;;;;;;;;;;;14.90;nan;100149.16;5013903;28;19922;-85
2023/04/28 11:05:23;;;;;;;;;;;;;;;14.84;nan;100146.25;5027360;28;19922;-85
2023/04/28 11:08:07;;;;;;;;;;;;;;;14.74;nan;100143.06;5015059;28;20293;-83
2023/04/28 11:10:51;;;;;;;;;;;;;;;14.73;nan;100145.91;5012595;28;19944;-83
2023/04/28 11:13:32;;;;;;;;;;;;;;;14.76;nan;100137.56;5032242;28;19928;-82
2023/04/28 11:16:04;;;;;;;;;;;;;;;14.86;nan;100133.56;5014319;28;19922;-82
2023/04/28 11:18:50;;;;;;;;;;;;;;;14.98;nan;100136.56;5006686;28;19929;-82
2023/04/28 11:21:16;;;;;;;;;;;;;;;14.94;nan;100126.47;5013763;28;19932;-82
2023/04/28 11:23:42;;;;;;;;;;;;;;;15.02;nan;100131.69;5014944;28;20513;-83
2023/04/28 11:26:07;;;;;;;;;;;;;;;15.07;nan;100134.59;5015581;28;19918;-84
2023/04/28 11:28:33;;;;;;;;;;;;;;;15.02;nan;100135.19;5012775;28;20014;-83
2023/04/28 11:31:11;;;;;;;;;;;;;;;15.00;nan;100136.38;5013861;28;19944;-83
2023/04/28 11:33:37;;;;;;;;;;;;;;;14.96;nan;100132.44;5032488;28;19971;-84
2023/04/28 11:36:03;;;;;;;;;;;;;;;14.94;nan;100129.97;5029499;28;19922;-84
2023/04/28 11:38:28;;;;;;;;;;;;;;;14.83;nan;100135.81;5014691;28;19963;-83
2023/04/28 11:40:57;;;;;;;;;;;;;;;14.76;nan;100142.91;5009877;28;19936;-83
2023/04/28 11:43:31;;;;;;;;;;;;;;;14.77;nan;100133.88;5028834;28;19922;-85
2023/04/28 11:45:56;;;;;;;;;;;;;;;14.75;nan;100136.72;5028616;28;20008;-85
2023/04/28 11:48:22;;;;;;;;;;;;;;;14.77;nan;100137.38;5008446;28;20408;-86
2023/04/28 11:50:47;;;;;;;;;;;;;;;14.75;nan;100144.72;5016248;28;20024;-86
2023/04/28 11:53:12;;;;;;;;;;;;;;;14.73;nan;100148.56;5002198;28;19957;-85
2023/04/28 11:55:37;;;;;;;;;;;;;;;14.67;nan;100141.38;5013163;28;19921;-85
2023/04/28 11:58:26;;;;;;;;;;;;;;;14.64;nan;100126.59;5028593;28;19961;-83
2023/04/28 12:01:12;;;;;;;;;;;;;;;14.65;nan;100130.91;5049707;23;19933;-91
2023/04/28 12:04:03;;;;;;;;;;;;;;;14.75;nan;100127.94;5041810;28;19912;-89
2023/04/28 12:06:56;;;;;;;;;;;;;;;14.80;nan;100126.38;5049649;28;19943;-90
2023/04/28 12:09:24;;;;;;;;;;;;;;;14.83;nan;100130.47;5072037;28;19977;-90
2023/04/28 12:11:56;;;;;;;;;;;;;;;14.83;nan;100133.97;5073990;28;19920;-90
2023/04/28 12:14:21;;;;;;;;;;;;;;;14.81;nan;100136.00;5073140;28;19924;-88
2023/04/28 12:16:47;;;;;;;;;;;;;;;14.83;nan;100135.81;5077177;28;20446;-89
2023/04/28 12:19:14;;;;;;;;;;;;;;;14.89;nan;100140.34;5077611;28;19931;-89
2023/04/28 12:21:40;;;;;;;;;;;;;;;14.98;nan;100133.09;5070939;28;19920;-89
2023/04/28 12:24:21;;;;;;;;;;;;;;;14.98;nan;100152.53;5088528;28;20118;-89
2023/04/28 12:26:47;;;;;;;;;;;;;;;14.95;nan;100138.78;5072228;28;19947;-88
2023/04/28 12:29:31;;;;;;;;;;;;;;;14.90;nan;100119.88;5074015;28;19920;-89
2023/04/28 12:31:56;;;;;;;;;;;;;;;14.85;nan;100117.81;5094672;28;19920;-89
2023/04/28 12:34:21;;;;;;;;;;;;;;;14.87;nan;100110.44;5067867;28;20023;-88
2023/04/28 12:36:47;;;;;;;;;;;;;;;14.84;nan;100124.13;5067288;28;19978;-88
2023/04/28 12:39:12;;;;;;;;;;;;;;;14.89;nan;100116.41;5069988;28;19988;-88
2023/04/28 12:41:38;;;;;;;;;;;;;;;14.96;nan;100122.59;5073658;28;20297;-89
2023/04/28 12:44:29;;;;;;;;;;;;;;;15.01;nan;100144.16;5067877;28;19959;-87
2023/04/28 12:47:18;;;;;;;;;;;;;;;;;;;;;
2023/04/28 12:49:44;;;;;;;;;;;;;;;15.14;nan;100121.34;5063513;28;19920;-89
2023/04/28 12:52:15;;;;;;;;;;;;;;;15.22;nan;100139.84;5039892;28;19983;-90
2023/04/28 12:54:45;;;;;;;;;;;;;;;15.23;nan;100152.16;5091390;28;19931;-88
2023/04/28 12:57:12;;;;;;;;;;;;;;;15.24;nan;100154.63;5089803;28;19924;-88